createdAt,value
2023-09-20T00:02:05.665Z,100.00
2023-09-20T00:04:34.322Z,100.00
2023-09-20T00:07:02.025Z,100.00
2023-09-20T00:09:31.723Z,100.00
2023-09-20T00:11:59.482Z,100.00
2023-09-20T00:14:30.602Z,100.00
2023-09-20T00:16:58.764Z,100.00
2023-09-20T00:19:27.028Z,100.00
2023-09-20T00:21:54.715Z,100.00
2023-09-20T00:24:22.402Z,100.00
2023-09-20T00:26:50.097Z,100.00
2023-09-20T00:29:17.840Z,100.00
2023-09-20T00:31:47.008Z,100.00
2023-09-20T00:34:14.833Z,100.00
2023-09-20T00:36:42.663Z,100.00
2023-09-20T00:39:11.335Z,100.00
2023-09-20T00:41:39.066Z,100.00
2023-09-20T00:44:07.274Z,100.00
2023-09-20T00:46:35.049Z,100.00
2023-09-20T00:49:04.642Z,100.00
2023-09-20T00:51:32.342Z,100.00
2023-09-20T00:54:04.604Z,100.00
2023-09-20T00:56:32.652Z,100.00
2023-09-20T00:59:06.084Z,100.00
2023-09-20T01:01:35.172Z,100.00
2023-09-20T01:04:06.582Z,100.00
2023-09-20T01:06:35.425Z,100.00
2023-09-20T01:09:03.649Z,100.00
2023-09-20T01:11:32.117Z,100.00
2023-09-20T01:14:00.797Z,100.00
2023-09-20T01:16:28.835Z,100.00
2023-09-20T01:18:56.721Z,100.00
2023-09-20T01:21:26.044Z,100.00
2023-09-20T01:23:55.463Z,100.00
2023-09-20T01:26:23.323Z,100.00
2023-09-20T01:28:51.124Z,100.00
2023-09-20T01:31:18.914Z,100.00
2023-09-20T01:33:46.711Z,100.00
2023-09-20T01:36:14.952Z,100.00
2023-09-20T01:38:43.761Z,100.00
2023-09-20T01:41:13.534Z,100.00
2023-09-20T01:43:42.391Z,100.00
2023-09-20T01:46:10.440Z,100.00
2023-09-20T01:48:39.145Z,100.00
2023-09-20T01:51:07.345Z,100.00
2023-09-20T01:53:35.161Z,100.00
2023-09-20T01:56:04.271Z,100.00
2023-09-20T01:58:33.571Z,100.00
2023-09-20T02:01:01.431Z,100.00
2023-09-20T02:03:32.914Z,100.00
2023-09-20T02:06:01.133Z,100.00
2023-09-20T02:08:28.929Z,100.00
2023-09-20T02:10:57.847Z,100.00
2023-09-20T02:13:25.671Z,100.00
2023-09-20T02:15:55.465Z,100.00
2023-09-20T02:18:23.907Z,100.00
2023-09-20T02:20:51.782Z,100.00
2023-09-20T02:23:20.025Z,100.00
2023-09-20T02:25:49.531Z,100.00
2023-09-20T02:28:17.967Z,100.00
2023-09-20T02:30:46.597Z,100.00
2023-09-20T02:33:19.660Z,100.00
2023-09-20T02:35:47.471Z,100.00
2023-09-20T02:38:15.263Z,100.00
2023-09-20T02:40:46.528Z,100.00
2023-09-20T02:43:14.349Z,100.00
2023-09-20T02:45:46.461Z,100.00
2023-09-20T02:48:15.678Z,100.00
2023-09-20T02:50:45.473Z,100.00
2023-09-20T02:53:13.627Z,100.00
2023-09-20T02:55:41.994Z,100.00
2023-09-20T02:58:10.270Z,100.00
2023-09-20T03:00:40.088Z,100.00
2023-09-20T03:03:09.050Z,100.00
2023-09-20T03:05:39.336Z,100.00
2023-09-20T03:08:12.447Z,100.00
2023-09-20T03:10:42.916Z,100.00
2023-09-20T03:13:17.615Z,100.00
2023-09-20T03:15:46.798Z,100.00
2023-09-20T03:18:15.936Z,100.00
2023-09-20T03:20:49.487Z,100.00
2023-09-20T03:23:17.403Z,100.00
2023-09-20T03:25:45.288Z,100.00
2023-09-20T03:28:13.093Z,100.00
2023-09-20T03:30:41.395Z,100.00
2023-09-20T03:33:10.982Z,100.00
2023-09-20T03:35:39.248Z,100.00
2023-09-20T03:38:10.254Z,100.00
2023-09-20T03:40:38.742Z,100.00
2023-09-20T03:43:08.859Z,100.00
2023-09-20T03:45:36.872Z,100.00
2023-09-20T03:48:07.007Z,100.00
2023-09-20T03:50:34.965Z,100.00
2023-09-20T03:53:02.928Z,100.00
2023-09-20T03:55:34.386Z,100.00
2023-09-20T03:58:02.191Z,100.00
2023-09-20T04:00:32.568Z,100.00
2023-09-20T04:03:02.547Z,100.00
2023-09-20T04:08:49.791Z,100.00
2023-09-20T04:08:51.469Z,100.00
2023-09-20T04:11:24.043Z,100.00
2023-09-20T04:13:59.383Z,100.00
2023-09-20T04:16:29.228Z,100.00
2023-09-20T04:19:11.890Z,100.00
2023-09-20T04:21:57.596Z,100.00
2023-09-20T04:24:27.737Z,100.00
2023-09-20T04:27:45.100Z,100.00
2023-09-20T04:30:15.745Z,100.00
2023-09-20T05:04:53.487Z,100.00
2023-09-20T05:07:38.702Z,100.00
2023-09-20T05:10:21.078Z,100.00
2023-09-20T05:24:44.838Z,100.00
2023-09-20T05:27:15.978Z,100.00
2023-09-20T05:29:45.623Z,100.00
2023-09-20T05:32:16.362Z,100.00
2023-09-20T05:34:50.801Z,100.00
2023-09-20T05:37:23.919Z,100.00
2023-09-20T05:40:25.859Z,100.00
2023-09-20T05:43:08.599Z,100.00
2023-09-20T05:45:48.354Z,100.00
2023-09-20T05:52:31.361Z,100.00
2023-09-20T05:55:17.926Z,100.00
2023-09-20T05:57:49.939Z,100.00
2023-09-20T06:00:26.894Z,100.00
2023-09-20T06:02:56.184Z,100.00
2023-09-20T06:05:26.118Z,100.00
2023-09-20T06:08:02.586Z,100.00
2023-09-20T06:10:33.980Z,100.00
2023-09-20T06:13:02.585Z,100.00
2023-09-20T06:19:19.950Z,100.00
2023-09-20T06:21:56.722Z,100.00
2023-09-20T06:24:33.891Z,100.00
2023-09-20T06:27:12.249Z,100.00
2023-09-20T06:37:17.484Z,100.00
2023-09-20T06:40:29.936Z,100.00
2023-09-20T06:44:06.902Z,100.00
2023-09-20T06:47:16.853Z,100.00
2023-09-20T06:50:01.801Z,100.00
2023-09-20T06:57:10.910Z,100.00
2023-09-20T06:59:54.437Z,100.00
2023-09-20T07:10:24.371Z,100.00
2023-09-20T07:13:15.157Z,100.00
2023-09-20T07:16:03.092Z,100.00
2023-09-20T07:20:04.809Z,100.00
2023-09-20T07:47:24.565Z,100.00
2023-09-20T07:49:54.545Z,100.00
2023-09-20T07:52:24.552Z,100.00
2023-09-20T07:54:52.505Z,98.40
2023-09-20T07:57:22.626Z,100.00
2023-09-20T07:59:55.059Z,98.94
2023-09-20T08:02:23.044Z,97.29
2023-09-20T08:04:50.968Z,97.84
2023-09-20T08:07:20.329Z,91.82
2023-09-20T08:09:56.047Z,88.41
2023-09-20T08:12:24.112Z,86.15
2023-09-20T08:14:53.353Z,90.35
2023-09-20T08:17:38.740Z,87.55
2023-09-20T08:20:11.955Z,88.87
2023-09-20T08:22:59.150Z,83.43
2023-09-20T08:25:44.206Z,82.09
2023-09-20T08:28:29.418Z,86.03
2023-09-20T08:31:16.208Z,87.68
2023-09-20T08:34:01.502Z,84.54
2023-09-20T08:36:52.952Z,79.86
2023-09-20T08:39:38.234Z,81.11
2023-09-20T08:42:23.446Z,82.99
2023-09-20T08:45:13.115Z,83.92
2023-09-20T08:48:20.818Z,79.83
2023-09-20T08:51:06.542Z,80.24
2023-09-20T08:53:51.813Z,80.52
2023-09-20T08:56:37.307Z,78.19
2023-09-20T08:59:23.178Z,79.95
2023-09-20T09:01:51.218Z,76.72
2023-09-20T09:04:20.943Z,74.06
2023-09-20T09:06:49.073Z,72.57
2023-09-20T09:09:17.225Z,69.37
2023-09-20T09:11:47.240Z,66.01
2023-09-20T09:14:15.617Z,66.49
2023-09-20T09:16:44.098Z,67.27
2023-09-20T09:19:12.088Z,66.75
2023-09-20T09:21:41.474Z,70.61
2023-09-20T09:24:09.923Z,64.70
2023-09-20T09:26:38.231Z,63.10
2023-09-20T09:29:08.444Z,63.71
2023-09-20T09:31:38.210Z,66.11
2023-09-20T09:34:08.673Z,61.81
2023-09-20T09:36:39.291Z,66.61
2023-09-20T09:39:32.150Z,63.55
2023-09-20T09:42:02.287Z,63.21
2023-09-20T09:44:30.205Z,66.11
2023-09-20T09:46:58.172Z,63.32
2023-09-20T09:49:28.568Z,58.08
2023-09-20T09:51:56.636Z,57.41
2023-09-20T09:54:25.935Z,61.31
2023-09-20T09:56:53.840Z,59.65
2023-09-20T09:59:21.778Z,56.73
2023-09-20T10:01:51.921Z,57.96
2023-09-20T10:04:23.091Z,62.26
2023-09-20T10:06:56.386Z,60.21
2023-09-20T10:09:27.354Z,54.67
2023-09-20T10:11:55.216Z,57.82
2023-09-20T10:14:23.572Z,58.58
2023-09-20T10:16:52.233Z,54.81
2023-09-20T10:19:20.072Z,55.64
2023-09-20T10:22:03.784Z,51.33
2023-09-20T10:24:45.170Z,53.07
2023-09-20T10:27:17.919Z,57.96
2023-09-20T10:30:00.698Z,58.96
2023-09-20T10:32:34.000Z,52.11
2023-09-20T10:35:22.776Z,55.15
2023-09-20T10:38:24.087Z,53.98
2023-09-20T10:41:04.417Z,54.96
2023-09-20T10:43:50.040Z,54.21
2023-09-20T10:46:19.974Z,55.35
2023-09-20T10:48:52.130Z,54.90
2023-09-20T10:51:42.852Z,52.67
2023-09-20T10:54:23.662Z,53.93
2023-09-20T10:57:04.360Z,52.82
2023-09-20T10:59:35.618Z,52.99
2023-09-20T11:02:06.647Z,53.70
2023-09-20T11:04:35.315Z,53.26
2023-09-20T11:07:03.738Z,53.92
2023-09-20T11:09:34.897Z,54.91
2023-09-20T11:12:12.989Z,52.46
2023-09-20T11:14:42.746Z,51.33
2023-09-20T11:17:15.206Z,48.84
2023-09-20T11:19:43.238Z,52.99
2023-09-20T11:22:11.173Z,49.86
2023-09-20T11:24:40.607Z,47.91
2023-09-20T11:27:11.703Z,49.97
2023-09-20T11:29:41.878Z,49.08
2023-09-20T11:32:12.642Z,52.05
2023-09-20T11:34:49.171Z,50.92
2023-09-20T11:37:18.905Z,48.85
2023-09-20T11:39:47.886Z,48.48
2023-09-20T11:42:29.542Z,46.81
2023-09-20T11:45:07.296Z,50.24
2023-09-20T11:47:45.534Z,47.55
2023-09-20T11:50:15.304Z,48.63
2023-09-20T11:52:45.467Z,49.62
2023-09-20T11:55:14.900Z,49.19
2023-09-20T11:57:46.493Z,48.30
2023-09-20T12:00:17.963Z,47.12
2023-09-20T12:02:46.291Z,48.34
2023-09-20T12:05:14.475Z,48.75
2023-09-20T12:07:44.091Z,48.56
2023-09-20T12:10:12.051Z,46.96
2023-09-20T12:12:40.104Z,48.86
2023-09-20T12:15:10.916Z,46.42
2023-09-20T12:17:38.670Z,49.20
2023-09-20T12:20:07.863Z,50.19
2023-09-20T12:22:35.528Z,51.60
2023-09-20T12:25:03.230Z,50.01
2023-09-20T12:27:30.897Z,49.06
2023-09-20T12:29:58.586Z,46.71
2023-09-20T12:32:28.042Z,45.78
2023-09-20T12:34:56.380Z,48.21
2023-09-20T12:37:24.464Z,48.49
2023-09-20T12:39:53.976Z,48.23
2023-09-20T12:42:22.046Z,47.71
2023-09-20T12:44:51.025Z,47.84
2023-09-20T12:47:21.064Z,46.23
2023-09-20T12:49:50.150Z,48.24
2023-09-20T12:52:18.620Z,48.03
2023-09-20T12:54:46.311Z,50.13
2023-09-20T12:57:15.481Z,49.53
2023-09-20T12:59:43.249Z,47.58
2023-09-20T13:02:11.419Z,47.12
2023-09-20T13:04:39.243Z,49.97
2023-09-20T13:07:08.574Z,48.84
2023-09-20T13:09:36.987Z,49.69
2023-09-20T13:12:05.037Z,47.14
2023-09-20T13:14:32.714Z,47.40
2023-09-20T13:17:01.988Z,50.23
2023-09-20T13:19:29.655Z,48.38
2023-09-20T13:22:00.552Z,47.46
2023-09-20T13:24:30.671Z,50.05
2023-09-20T13:26:58.418Z,48.75
2023-09-20T13:29:28.933Z,47.99
2023-09-20T13:31:56.913Z,49.16
2023-09-20T13:34:26.366Z,48.42
2023-09-20T13:36:54.156Z,49.55
2023-09-20T13:39:21.861Z,48.97
2023-09-20T13:41:51.004Z,50.46
2023-09-20T13:44:20.579Z,49.93
2023-09-20T13:46:48.425Z,47.01
2023-09-20T13:49:17.299Z,48.89
2023-09-20T13:51:45.242Z,48.07
2023-09-20T13:54:13.966Z,49.58
2023-09-20T13:56:41.911Z,51.10
2023-09-20T13:59:11.469Z,47.84
2023-09-20T14:01:40.647Z,50.57
2023-09-20T14:04:10.851Z,50.06
2023-09-20T14:06:39.217Z,50.86
2023-09-20T14:09:09.334Z,50.31
2023-09-20T14:11:37.064Z,50.44
2023-09-20T14:14:06.085Z,51.44
2023-09-20T14:16:36.023Z,51.98
2023-09-20T14:19:03.795Z,49.04
2023-09-20T14:21:32.393Z,50.33
2023-09-20T14:24:00.341Z,49.85
2023-09-20T14:26:29.013Z,49.66
2023-09-20T14:28:56.757Z,50.15
2023-09-20T14:31:24.479Z,49.95
2023-09-20T14:33:53.561Z,49.37
2023-09-20T14:36:22.764Z,50.86
2023-09-20T14:38:50.508Z,50.45
2023-09-20T14:42:24.790Z,48.63
2023-09-20T14:44:41.281Z,51.58
2023-09-20T14:47:09.137Z,53.52
2023-09-20T14:49:38.352Z,50.60
2023-09-20T14:52:06.495Z,51.78
2023-09-20T14:54:36.795Z,52.94
2023-09-20T14:57:04.721Z,52.66
2023-09-20T14:59:33.789Z,53.26
2023-09-20T15:02:01.821Z,53.24
2023-09-20T15:04:32.712Z,52.64
2023-09-20T15:07:03.061Z,53.52
2023-09-20T15:09:32.004Z,52.36
2023-09-20T15:12:00.506Z,54.90
2023-09-20T15:14:30.993Z,53.75
2023-09-20T15:17:02.701Z,56.24
2023-09-20T15:19:31.504Z,56.85
2023-09-20T15:22:00.030Z,54.93
2023-09-20T15:24:29.360Z,54.31
2023-09-20T15:26:57.854Z,54.82
2023-09-20T15:29:25.877Z,54.98
2023-09-20T15:31:55.028Z,55.92
2023-09-20T15:34:23.458Z,55.26
2023-09-20T15:36:51.280Z,57.90
2023-09-20T15:39:19.286Z,55.96
2023-09-20T15:41:48.819Z,56.53
2023-09-20T15:44:16.742Z,55.42
2023-09-20T15:46:46.276Z,55.96
2023-09-20T15:49:14.535Z,54.85
2023-09-20T15:51:42.332Z,54.93
2023-09-20T15:54:10.156Z,54.97
2023-09-20T15:56:40.081Z,56.75
2023-09-20T15:59:09.387Z,57.79
2023-09-20T16:01:37.716Z,56.33
2023-09-20T16:04:08.672Z,57.61
2023-09-20T16:06:47.220Z,58.55
2023-09-20T16:09:15.875Z,59.18
2023-09-20T16:11:47.713Z,59.06
2023-09-20T16:14:17.908Z,68.84
2023-09-20T16:16:45.675Z,60.39
2023-09-20T16:19:13.618Z,60.25
2023-09-20T16:21:41.630Z,60.44
2023-09-20T16:24:09.453Z,60.91
2023-09-20T16:26:38.703Z,62.68
2023-09-20T16:29:06.478Z,62.03
2023-09-20T16:31:35.586Z,63.88
2023-09-20T16:34:03.376Z,64.38
2023-09-20T16:36:31.114Z,64.35
2023-09-20T16:38:58.846Z,64.00
2023-09-20T16:41:26.603Z,65.50
2023-09-20T16:43:54.317Z,65.94
2023-09-20T16:46:22.009Z,66.10
2023-09-20T16:48:51.156Z,68.10
2023-09-20T16:51:18.841Z,68.70
2023-09-20T16:53:46.653Z,68.94
2023-09-20T16:56:16.572Z,70.54
2023-09-20T16:58:44.822Z,71.59
2023-09-20T17:01:17.659Z,71.48
2023-09-20T17:03:45.682Z,71.88
2023-09-20T17:06:14.912Z,72.31
2023-09-20T17:08:42.626Z,72.37
2023-09-20T17:11:11.201Z,72.84
2023-09-20T17:13:39.675Z,74.86
2023-09-20T17:16:08.430Z,74.79
2023-09-20T17:18:36.295Z,74.34
2023-09-20T17:21:05.188Z,74.41
2023-09-20T17:23:34.322Z,75.66
2023-09-20T17:26:02.055Z,74.20
2023-09-20T17:28:29.750Z,75.79
2023-09-20T17:31:03.208Z,76.21
2023-09-20T17:33:31.049Z,76.55
2023-09-20T17:36:02.307Z,77.18
2023-09-20T17:38:30.254Z,77.31
2023-09-20T17:41:01.155Z,79.16
2023-09-20T17:43:30.528Z,80.36
2023-09-20T17:45:59.848Z,82.10
2023-09-20T17:48:27.739Z,81.85
2023-09-20T17:50:55.512Z,81.91
2023-09-20T17:53:23.430Z,82.13
2023-09-20T17:55:52.616Z,83.90
2023-09-20T17:58:21.719Z,83.45
2023-09-20T18:00:49.851Z,82.45
2023-09-20T18:03:17.707Z,83.42
2023-09-20T18:05:45.518Z,83.82
2023-09-20T18:08:13.214Z,85.84
2023-09-20T18:10:40.945Z,87.63
2023-09-20T18:13:08.653Z,87.42
2023-09-20T18:15:37.659Z,89.45
2023-09-20T18:18:06.353Z,90.69
2023-09-20T18:20:34.185Z,90.59
2023-09-20T18:23:02.936Z,89.70
2023-09-20T18:25:30.625Z,90.96
2023-09-20T18:27:58.363Z,90.22
2023-09-20T18:30:26.137Z,90.78
2023-09-20T18:32:57.039Z,93.32
2023-09-20T18:35:26.198Z,93.54
2023-09-20T18:37:54.091Z,93.70
2023-09-20T18:40:21.764Z,92.79
2023-09-20T18:42:49.456Z,91.56
2023-09-20T18:45:17.241Z,90.18
2023-09-20T18:47:46.297Z,91.22
2023-09-20T18:50:18.716Z,92.93
2023-09-20T18:52:48.049Z,95.27
2023-09-20T18:55:18.654Z,96.00
2023-09-20T18:57:51.861Z,96.83
2023-09-20T19:00:20.073Z,97.53
2023-09-20T19:02:49.241Z,97.74
2023-09-20T19:05:18.925Z,97.65
2023-09-20T19:07:47.999Z,97.61
2023-09-20T19:10:17.102Z,96.35
2023-09-20T19:12:45.333Z,96.33
2023-09-20T19:15:15.098Z,95.87
2023-09-20T19:17:44.220Z,94.30
2023-09-20T19:20:14.323Z,96.28
2023-09-20T19:22:44.785Z,96.49
2023-09-20T19:25:14.131Z,98.68
2023-09-20T19:27:42.539Z,98.27
2023-09-20T19:30:11.448Z,98.86
2023-09-20T19:32:40.189Z,97.76
2023-09-20T19:35:10.159Z,98.59
2023-09-20T19:37:37.826Z,98.96
2023-09-20T19:40:17.419Z,99.54
2023-09-20T19:42:46.795Z,100.00
2023-09-20T19:45:16.468Z,99.93
2023-09-20T19:47:45.392Z,100.00
2023-09-20T19:50:15.775Z,99.35
2023-09-20T19:52:44.237Z,100.00
2023-09-20T19:55:13.908Z,99.66
2023-09-20T19:57:43.029Z,100.00
2023-09-20T20:00:20.220Z,100.00
2023-09-20T20:02:49.911Z,100.00
2023-09-20T20:05:18.498Z,100.00
2023-09-20T20:07:48.008Z,100.00
2023-09-20T20:10:17.213Z,100.00
2023-09-20T20:12:45.779Z,100.00
2023-09-20T20:15:13.831Z,100.00
2023-09-20T20:17:44.809Z,100.00
2023-09-20T20:20:21.585Z,100.00
2023-09-20T20:22:54.165Z,100.00
2023-09-20T20:25:26.433Z,100.00
2023-09-20T20:27:54.319Z,100.00
2023-09-20T20:30:22.165Z,100.00
2023-09-20T20:32:51.149Z,100.00
2023-09-20T20:35:19.270Z,100.00
2023-09-20T20:37:47.609Z,100.00
2023-09-20T20:40:16.794Z,100.00
2023-09-20T20:42:46.040Z,100.00
2023-09-20T20:45:19.861Z,100.00
2023-09-20T20:47:48.531Z,100.00
2023-09-20T20:50:17.822Z,100.00
2023-09-20T20:52:49.124Z,100.00
2023-09-20T20:55:20.900Z,100.00
2023-09-20T20:57:51.497Z,100.00
2023-09-20T21:00:25.104Z,100.00
2023-09-20T21:02:54.431Z,100.00
2023-09-20T21:05:25.067Z,100.00
2023-09-20T21:07:53.708Z,100.00
2023-09-20T21:10:22.499Z,100.00
2023-09-20T21:12:52.383Z,100.00
2023-09-20T21:15:22.616Z,100.00
2023-09-20T21:17:51.872Z,100.00
2023-09-20T21:20:25.025Z,100.00
2023-09-20T21:22:57.296Z,100.00
2023-09-20T21:25:28.222Z,100.00
2023-09-20T21:27:58.387Z,100.00
2023-09-20T21:30:27.297Z,100.00
2023-09-20T21:32:56.621Z,100.00
2023-09-20T21:35:24.672Z,100.00
2023-09-20T21:37:55.793Z,100.00
2023-09-20T21:40:24.251Z,100.00
2023-09-20T21:42:52.970Z,100.00
2023-09-20T21:45:25.603Z,100.00
2023-09-20T21:47:53.810Z,100.00
2023-09-20T21:50:23.275Z,100.00
2023-09-20T21:52:53.959Z,100.00
2023-09-20T21:55:22.157Z,100.00
2023-09-20T21:57:50.148Z,100.00
2023-09-20T22:00:30.794Z,100.00
2023-09-20T22:03:01.929Z,100.00
2023-09-20T22:05:30.214Z,100.00
2023-09-20T22:08:02.934Z,100.00
2023-09-20T22:10:39.439Z,100.00
2023-09-20T22:13:09.547Z,100.00
2023-09-20T22:15:38.357Z,100.00
2023-09-20T22:18:18.953Z,100.00
2023-09-20T22:20:51.375Z,100.00
2023-09-20T22:23:20.386Z,100.00
2023-09-20T22:25:49.235Z,100.00
2023-09-20T22:28:19.003Z,100.00
2023-09-20T22:30:47.898Z,100.00
2023-09-20T22:33:17.942Z,100.00
2023-09-20T22:35:51.681Z,100.00
2023-09-20T22:38:29.372Z,100.00
2023-09-20T22:40:57.089Z,100.00
2023-09-20T22:43:26.047Z,100.00
2023-09-20T22:45:53.796Z,100.00
2023-09-20T22:48:24.726Z,100.00
2023-09-20T22:50:54.015Z,100.00
2023-09-20T22:53:24.796Z,100.00
2023-09-20T22:55:53.289Z,100.00
2023-09-20T22:58:22.017Z,100.00
2023-09-20T23:00:51.876Z,100.00
2023-09-20T23:03:21.643Z,100.00
2023-09-20T23:05:52.054Z,100.00
2023-09-20T23:08:20.515Z,100.00
2023-09-20T23:10:51.892Z,100.00
2023-09-20T23:13:22.507Z,100.00
2023-09-20T23:15:53.839Z,100.00
2023-09-20T23:18:23.208Z,100.00
2023-09-20T23:20:53.710Z,100.00
2023-09-20T23:23:25.180Z,100.00
2023-09-20T23:25:54.097Z,100.00
2023-09-20T23:28:24.262Z,100.00
2023-09-20T23:30:59.143Z,100.00
2023-09-20T23:33:29.001Z,100.00
2023-09-20T23:35:58.711Z,100.00
2023-09-20T23:38:29.592Z,100.00
2023-09-20T23:41:06.239Z,100.00
2023-09-20T23:43:35.022Z,100.00
2023-09-20T23:46:09.127Z,100.00
2023-09-20T23:48:38.514Z,100.00
2023-09-20T23:51:08.730Z,100.00
2023-09-20T23:53:37.301Z,100.00
2023-09-20T23:56:05.899Z,100.00
2023-09-20T23:58:33.631Z,100.00
